Time;durP1;ratioP1;P1;durP2;ratioP2;P2;SDS_P1;SDS_P2;PMS_P1;PMS_P2;Temp;Humidity;BMP_temperature;BMP_pressure;BME280_temperature;BME280_humidity;BME280_pressure;Samples;Min_cycle;Max_cycle;Signal;HPM_P1;HPM_P2
2022/04/05 00:00:43;;;;;;;33.70;20.30;;;;;;;-1.88;81.22;100707.34;107380;1248;70169;-66
2022/04/05 00:03:11;;;;;;;36.00;19.40;;;;;;;-1.91;81.11;100706.70;107562;1247;74207;-64
2022/04/05 00:05:41;;;;;;;32.40;19.40;;;;;;;-1.90;81.23;100707.89;107551;1248;62145;-63
2022/04/05 00:08:10;;;;;;;36.90;20.40;;;;;;;-1.89;81.28;100705.81;107503;1248;60118;-66
2022/04/05 00:10:39;;;;;;;36.90;21.20;;;;;;;-1.89;80.51;100698.80;107346;1247;73224;-65
2022/04/05 00:13:08;;;;;;;32.10;20.60;;;;;;;-1.86;80.49;100703.54;107326;1248;72407;-64
2022/04/05 00:15:37;;;;;;;37.70;19.80;;;;;;;-1.87;79.89;100699.11;107455;1248;69891;-64
2022/04/05 00:18:06;;;;;;;33.70;19.50;;;;;;;-1.88;79.45;100694.34;107454;1247;72251;-65
2022/04/05 00:20:35;;;;;;;32.70;19.50;;;;;;;-1.88;79.96;100688.20;107524;1248;61369;-67
2022/04/05 00:23:04;;;;;;;37.80;21.30;;;;;;;-1.88;79.81;100686.17;107411;1249;61676;-66
2022/04/05 00:25:33;;;;;;;39.40;21.50;;;;;;;-1.90;79.84;100684.66;107732;1248;75624;-66
2022/04/05 00:28:03;;;;;;;32.40;20.10;;;;;;;-1.92;79.16;100682.84;107715;1247;71815;-66
2022/04/05 00:30:32;;;;;;;30.30;19.30;;;;;;;-1.95;79.13;100681.70;107691;1248;68327;-65
2022/04/05 00:33:01;;;;;;;33.40;19.90;;;;;;;-1.99;80.24;100678.19;107510;1248;74517;-64
2022/04/05 00:35:31;;;;;;;35.30;21.10;;;;;;;-2.04;81.19;100678.64;107614;1248;62630;-65
2022/04/05 00:38:00;;;;;;;33.70;20.90;;;;;;;-2.08;81.39;100674.31;107556;1247;59649;-65
2022/04/05 00:40:30;;;;;;;38.90;21.20;;;;;;;-2.09;81.45;100673.65;107530;1248;74178;-67
2022/04/05 00:43:00;;;;;;;33.70;20.10;;;;;;;-2.13;81.64;100674.58;107626;1248;71238;-69
2022/04/05 00:45:29;;;;;;;36.60;20.30;;;;;;;-2.15;81.34;100669.16;107708;1247;69057;-68
2022/04/05 00:47:59;;;;;;;38.80;20.20;;;;;;;-2.18;81.33;100665.96;107724;1248;74694;-68
2022/04/05 00:50:32;;;;;;;40.10;22.20;;;;;;;-2.20;80.96;100659.20;107708;1247;60352;-64
2022/04/05 00:53:05;;;;;;;39.00;21.60;;;;;;;-2.16;81.92;100657.58;107501;1249;57948;-64
2022/04/05 00:55:35;;;;;;;;;;;;;;;-2.13;82.14;100654.95;107563;1249;74489;-63
2022/04/05 00:58:05;;;;;;;38.10;20.10;;;;;;;-2.10;81.18;100658.30;107429;1248;70496;-64
2022/04/05 01:00:34;;;;;;;40.90;22.60;;;;;;;-2.14;81.50;100655.16;107406;1248;69012;-67
2022/04/05 01:03:03;;;;;;;40.50;21.70;;;;;;;-2.10;81.78;100658.14;107581;1247;71189;-65
2022/04/05 01:05:34;;;;;;;33.40;20.50;;;;;;;-2.06;81.83;100651.38;107424;1248;61655;-68
2022/04/05 01:08:05;;;;;;;37.10;20.30;;;;;;;-2.07;80.96;100652.10;107748;1247;61861;-66
2022/04/05 01:10:34;;;;;;;32.40;20.30;;;;;;;-2.11;81.00;100650.98;107523;1247;74127;-65
2022/04/05 01:13:03;;;;;;;33.50;19.60;;;;;;;-2.15;81.02;100648.33;107394;1248;71415;-64
2022/04/05 01:15:33;;;;;;;30.20;18.50;;;;;;;-2.20;80.82;100648.45;107485;1247;69737;-67
2022/04/05 01:18:03;;;;;;;31.60;18.80;;;;;;;-2.23;81.12;100648.34;107533;1247;74405;-64
2022/04/05 01:20:32;;;;;;;32.20;19.30;;;;;;;-2.27;79.69;100646.71;107524;1247;63236;-65
2022/04/05 01:23:01;;;;;;;34.70;18.20;;;;;;;-2.32;79.23;100642.73;107575;1247;59032;-64
2022/04/05 01:25:30;;;;;;;29.90;18.40;;;;;;;-2.35;80.50;100646.02;107568;1247;71893;-64
2022/04/05 01:27:59;;;;;;;32.00;18.50;;;;;;;-2.36;80.68;100641.61;107545;1247;70444;-64
2022/04/05 01:30:28;;;;;;;33.60;19.10;;;;;;;-2.36;81.03;100641.62;107557;1247;68223;-66
2022/04/05 01:32:59;;;;;;;32.90;17.80;;;;;;;-2.41;80.40;100642.23;107478;1247;74984;-64
2022/04/05 01:35:28;;;;;;;32.00;19.10;;;;;;;-2.45;80.61;100640.58;107553;1247;63444;-65
2022/04/05 01:37:58;;;;;;;34.80;19.50;;;;;;;-2.47;80.46;100639.45;107497;1247;60072;-64
2022/04/05 01:40:27;;;;;;;29.00;18.00;;;;;;;-2.53;80.25;100634.79;107584;1247;71663;-63
2022/04/05 01:42:56;;;;;;;30.20;18.50;;;;;;;-2.60;80.76;100643.63;107485;1247;71286;-64
2022/04/05 01:45:25;;;;;;;33.80;18.60;;;;;;;-2.71;80.90;100638.55;107557;1247;68395;-64
2022/04/05 01:47:54;;;;;;;37.60;21.80;;;;;;;-2.69;82.14;100644.14;107521;1247;73310;-64
2022/04/05 01:50:24;;;;;;;35.60;19.90;;;;;;;-2.66;82.18;100638.80;107541;1247;61190;-63
2022/04/05 01:52:53;;;;;;;32.30;19.40;;;;;;;-2.67;81.71;100635.23;107558;1247;61914;-64
2022/04/05 01:55:22;;;;;;;35.90;19.50;;;;;;;-2.67;82.06;100633.36;107507;1247;75133;-62
2022/04/05 01:57:50;;;;;;;34.70;20.40;;;;;;;-2.63;82.12;100626.46;107509;1247;72945;-64
2022/04/05 02:00:19;;;;;;;46.50;23.50;;;;;;;-2.59;81.96;100629.10;107532;1247;70065;-63
2022/04/05 02:02:48;;;;;;;41.10;21.70;;;;;;;-2.58;81.68;100630.97;107344;1250;71890;-62
2022/04/05 02:05:18;;;;;;;36.30;21.10;;;;;;;-2.57;81.39;100625.83;107515;1247;62365;-64
2022/04/05 02:07:47;;;;;;;28.90;17.10;;;;;;;-2.57;80.57;100623.45;107508;1247;60831;-63
2022/04/05 02:10:16;;;;;;;32.20;17.70;;;;;;;-2.58;80.86;100618.17;107540;1247;75201;-63
2022/04/05 02:12:46;;;;;;;31.80;18.50;;;;;;;-2.58;80.88;100618.35;107502;1247;70350;-63
2022/04/05 02:15:33;;;;;;;31.90;17.80;;;;;;;-2.62;80.70;100616.20;107484;1247;70077;-63
2022/04/05 02:18:05;;;;;;;29.60;17.00;;;;;;;-2.66;81.05;100613.91;107504;1248;71991;-63
2022/04/05 02:20:34;;;;;;;30.80;18.50;;;;;;;-2.69;80.93;100610.02;107396;1250;61785;-66
2022/04/05 02:23:03;;;;;;;28.50;17.00;;;;;;;-2.68;81.19;100609.84;107400;1248;59748;-63
2022/04/05 02:25:47;;;;;;;24.90;15.90;;;;;;;-2.73;80.81;100610.96;107349;1247;74034;-65
2022/04/05 02:28:17;;;;;;;25.60;14.70;;;;;;;-2.77;80.75;100608.65;107291;1249;70641;-64
2022/04/05 02:30:51;;;;;;;24.40;16.70;;;;;;;-2.82;80.83;100608.92;107413;1247;71678;-64
2022/04/05 02:33:24;;;;;;;28.00;16.40;;;;;;;-2.86;80.54;100606.44;107265;1248;74389;-65
2022/04/05 02:35:54;;;;;;;28.00;17.10;;;;;;;-2.89;81.11;100604.98;107380;1247;61610;-65
2022/04/05 02:38:24;;;;;;;27.00;16.40;;;;;;;-2.93;80.89;100603.52;107389;1247;60574;-64
2022/04/05 02:40:53;;;;;;;25.00;15.20;;;;;;;-2.97;81.11;100599.13;107287;1248;73068;-64
2022/04/05 02:43:24;;;;;;;24.50;14.90;;;;;;;-2.99;80.86;100602.77;107434;1248;73010;-59
2022/04/05 02:45:56;;;;;;;31.90;16.80;;;;;;;-3.01;81.56;100597.34;107284;1250;68563;-61
2022/04/05 02:48:27;;;;;;;29.30;17.50;;;;;;;-3.00;81.54;100596.13;107333;1247;74208;-62
2022/04/05 02:50:56;;;;;;;26.50;15.80;;;;;;;-2.95;81.64;100591.95;107315;1248;60115;-65
2022/04/05 02:53:25;;;;;;;27.70;15.40;;;;;;;-2.96;81.15;100596.91;107383;1247;60674;-64
2022/04/05 02:55:54;;;;;;;25.30;15.60;;;;;;;-2.96;81.25;100590.27;107346;1250;73211;-64
2022/04/05 02:58:25;;;;;;;24.60;15.10;;;;;;;-2.98;81.06;100588.77;107465;1248;72298;-65
2022/04/05 03:00:54;;;;;;;30.50;15.00;;;;;;;-2.99;80.70;100588.45;106742;1247;670771;-61
2022/04/05 03:03:23;;;;;;;26.80;15.40;;;;;;;-3.00;80.94;100590.00;107329;1248;73890;-65
2022/04/05 03:05:54;;;;;;;19.90;13.00;;;;;;;-2.97;80.89;100591.65;107280;1248;60760;-64
2022/04/05 03:08:24;;;;;;;21.20;13.30;;;;;;;-2.96;80.51;100585.81;107281;1247;60305;-65
2022/04/05 03:10:53;;;;;;;23.90;13.10;;;;;;;-2.97;80.10;100581.77;107198;1248;75406;-64
2022/04/05 03:13:22;;;;;;;33.10;19.10;;;;;;;-2.98;79.85;100579.39;107342;1249;72517;-66
2022/04/05 03:15:52;;;;;;;24.00;13.90;;;;;;;-2.96;80.85;100574.74;107133;1250;72289;-66
2022/04/05 03:18:22;;;;;;;26.90;15.40;;;;;;;-2.98;79.87;100572.40;107276;1249;72570;-64
2022/04/05 03:20:52;;;;;;;23.60;14.20;;;;;;;-2.99;80.12;100570.55;107536;1249;60022;-67
2022/04/05 03:23:22;;;;;;;27.50;17.00;;;;;;;-2.98;80.21;100573.60;107687;1247;59724;-65
2022/04/05 03:25:52;;;;;;;38.10;20.50;;;;;;;-2.97;80.90;100574.42;107358;1248;74914;-66
2022/04/05 03:28:22;;;;;;;26.20;15.50;;;;;;;-2.93;80.86;100573.86;107345;1248;69714;-66
2022/04/05 03:30:51;;;;;;;28.90;16.00;;;;;;;-2.91;80.58;100571.60;107396;1249;70542;-66
2022/04/05 03:33:21;;;;;;;25.40;14.20;;;;;;;-2.91;80.09;100571.25;107455;1249;73701;-66
2022/04/05 03:35:51;;;;;;;24.00;14.20;;;;;;;-2.93;79.87;100570.11;107542;1248;60396;-68
2022/04/05 03:38:20;;;;;;;28.30;15.10;;;;;;;-2.97;79.96;100567.79;107377;1248;58957;-66
2022/04/05 03:40:50;;;;;;;27.40;16.20;;;;;;;-2.97;80.14;100570.52;107290;1249;74982;-66
2022/04/05 03:43:20;;;;;;;27.10;15.40;;;;;;;-3.00;80.21;100569.04;107514;1249;71043;-66
2022/04/05 03:45:53;;;;;;;23.30;15.00;;;;;;;-3.00;79.87;100569.73;107206;1249;69102;-69
2022/04/05 03:48:23;;;;;;;27.50;15.10;;;;;;;-2.98;80.26;100569.69;107228;1248;73978;-66
2022/04/05 03:50:52;;;;;;;27.00;14.60;;;;;;;-2.95;80.00;100569.79;107163;1251;59631;-67
2022/04/05 03:53:22;;;;;;;29.80;15.30;;;;;;;-2.95;79.77;100568.42;107470;1248;59736;-65
2022/04/05 03:55:51;;;;;;;27.00;15.50;;;;;;;-2.93;79.82;100564.83;107610;1247;74884;-69
2022/04/05 03:58:21;;;;;;;26.50;15.10;;;;;;;-2.94;79.57;100564.85;107711;1248;71262;-66
2022/04/05 04:00:53;;;;;;;29.10;15.70;;;;;;;-2.91;79.64;100566.33;107586;1249;69677;-67
2022/04/05 04:03:26;;;;;;;28.10;15.30;;;;;;;-2.87;79.83;100565.90;107431;1250;73518;-67
2022/04/05 04:05:55;;;;;;;24.90;15.40;;;;;;;-2.82;79.34;100568.70;107502;1250;63420;-67
2022/04/05 04:08:25;;;;;;;27.60;15.70;;;;;;;-2.76;79.27;100572.66;107598;1248;62121;-66
2022/04/05 04:10:55;;;;;;;31.40;15.30;;;;;;;-2.70;79.30;100574.42;107554;1248;73593;-67
2022/04/05 04:13:26;;;;;;;30.50;16.30;;;;;;;-2.62;79.11;100573.93;107576;1249;70060;-66
2022/04/05 04:15:56;;;;;;;39.50;17.00;;;;;;;-2.54;79.00;100574.09;107452;1247;70960;-68
2022/04/05 04:18:26;;;;;;;29.30;16.30;;;;;;;-2.48;78.92;100569.54;107229;1249;72462;-68
2022/04/05 04:20:56;;;;;;;34.70;18.10;;;;;;;-2.35;78.92;100569.79;107391;1247;59618;-66
2022/04/05 04:23:25;;;;;;;31.30;17.30;;;;;;;-2.29;78.71;100566.75;107940;1248;59713;-66
2022/04/05 04:25:56;;;;;;;38.20;19.90;;;;;;;-2.21;78.73;100572.38;107340;1248;71731;-68
2022/04/05 04:28:25;;;;;;;36.90;18.20;;;;;;;-2.10;79.04;100578.95;107648;1248;72545;-68
2022/04/05 04:30:56;;;;;;;30.60;16.50;;;;;;;-2.00;78.75;100575.67;107471;1247;69620;-67
2022/04/05 04:33:25;;;;;;;36.80;17.90;;;;;;;-1.93;78.18;100572.08;107410;1248;72785;-67
2022/04/05 04:35:54;;;;;;;36.50;17.60;;;;;;;-1.86;78.25;100569.02;107144;1248;59611;-68
2022/04/05 04:38:24;;;;;;;38.20;18.10;;;;;;;-1.78;78.24;100560.13;107298;1249;61368;-67
2022/04/05 04:40:53;;;;;;;39.40;17.30;;;;;;;-1.70;77.92;100557.02;107206;1250;73466;-68
2022/04/05 04:43:24;;;;;;;32.30;17.80;;;;;;;-1.64;77.89;100554.48;107502;1248;69574;-65
2022/04/05 04:46:00;;;;;;;31.70;16.50;;;;;;;-1.56;78.08;100552.94;107280;1250;70600;-67
2022/04/05 04:48:29;;;;;;;34.90;16.80;;;;;;;-1.47;78.01;100558.33;107397;1248;71318;-65
2022/04/05 04:50:58;;;;;;;29.90;16.30;;;;;;;-1.37;77.67;100558.23;107514;1247;62655;-67
2022/04/05 04:53:27;;;;;;;35.90;20.80;;;;;;;-1.23;77.25;100563.00;107518;1249;58913;-68
2022/04/05 04:55:57;;;;;;;30.50;16.50;;;;;;;-1.09;77.54;100567.27;107464;1247;72761;-66
2022/04/05 04:58:37;;;;;;;36.40;20.70;;;;;;;-0.95;77.40;100571.16;107360;1249;72623;-66
2022/04/05 05:01:06;;;;;;;35.00;20.30;;;;;;;-0.82;77.06;100568.91;107451;1249;66883;-66
2022/04/05 05:03:35;;;;;;;28.70;17.10;;;;;;;-0.68;76.72;100570.25;107559;1248;73590;-67
2022/04/05 05:06:05;;;;;;;30.70;17.10;;;;;;;-0.55;76.74;100573.80;107342;1249;60391;-68
2022/04/05 05:08:34;;;;;;;41.50;22.20;;;;;;;-0.39;76.01;100577.11;107489;1249;61223;-75
2022/04/05 05:11:03;;;;;;;30.60;18.50;;;;;;;-0.22;74.00;100577.64;107671;1247;73978;-66
2022/04/05 05:13:31;;;;;;;31.00;18.20;;;;;;;-0.05;75.02;100578.13;107322;1246;73706;-66
2022/04/05 05:16:01;;;;;;;29.10;16.60;;;;;;;0.14;71.70;100575.16;107420;1248;71552;-68
2022/04/05 05:18:30;;;;;;;34.30;16.50;;;;;;;0.28;72.66;100568.86;107423;1247;74782;-67
2022/04/05 05:20:59;;;;;;;32.30;18.10;;;;;;;0.44;73.22;100560.48;107348;1247;61844;-66
2022/04/05 05:23:28;;;;;;;33.20;19.60;;;;;;;0.61;70.95;100559.23;107296;1249;60209;-69
2022/04/05 05:25:57;;;;;;;30.60;17.00;;;;;;;0.80;66.79;100563.02;107365;1249;72835;-68
2022/04/05 05:28:26;;;;;;;32.50;16.40;;;;;;;0.95;68.50;100559.44;107531;1248;71023;-68
2022/04/05 05:30:55;;;;;;;31.20;16.70;;;;;;;1.08;69.66;100555.03;107589;1248;69521;-67
2022/04/05 05:33:25;;;;;;;36.40;21.20;;;;;;;1.29;67.55;100551.72;107370;1251;74254;-67
2022/04/05 05:35:55;;;;;;;31.40;17.30;;;;;;;1.44;67.78;100553.55;107417;1248;60783;-68
2022/04/05 05:38:23;;;;;;;30.50;15.80;;;;;;;1.60;65.91;100549.36;107443;1249;62075;-68
2022/04/05 05:40:52;;;;;;;26.20;15.40;;;;;;;1.73;67.32;100543.33;107290;1248;75545;-66
2022/04/05 05:43:23;;;;;;;24.10;15.90;;;;;;;1.87;69.61;100549.99;107388;1248;71179;-67
2022/04/05 05:45:53;;;;;;;24.00;15.20;;;;;;;2.00;70.42;100550.22;107440;1249;70013;-67
2022/04/05 05:48:22;;;;;;;25.20;14.50;;;;;;;2.14;65.17;100542.77;107420;1249;72750;-67
2022/04/05 05:50:51;;;;;;;23.80;12.30;;;;;;;2.31;59.15;100537.95;107392;1249;60319;-73
2022/04/05 05:53:21;;;;;;;20.90;12.30;;;;;;;2.48;59.04;100535.54;107374;1248;61888;-70
2022/04/05 05:55:51;;;;;;;20.60;13.10;;;;;;;2.63;58.62;100539.88;107483;1248;75175;-68
2022/04/05 05:58:20;;;;;;;23.90;14.00;;;;;;;2.78;57.33;100543.25;107556;1249;70992;-69
2022/04/05 06:00:50;;;;;;;20.80;12.70;;;;;;;2.93;58.52;100539.14;107548;1249;69689;-70
2022/04/05 06:03:19;;;;;;;19.00;12.30;;;;;;;3.07;58.83;100535.41;107455;1248;71957;-66
2022/04/05 06:05:48;;;;;;;18.00;12.20;;;;;;;3.22;59.58;100534.23;107417;1247;63132;-68
2022/04/05 06:08:17;;;;;;;20.60;12.30;;;;;;;3.37;58.74;100535.45;107365;1248;60006;-66
2022/04/05 06:10:47;;;;;;;19.20;11.70;;;;;;;3.52;58.19;100533.06;107367;1248;74082;-71
2022/04/05 06:13:17;;;;;;;20.70;11.60;;;;;;;3.69;57.27;100529.01;107413;1247;71158;-66
2022/04/05 06:15:47;;;;;;;19.30;11.80;;;;;;;3.83;59.22;100526.27;107211;1249;68779;-71
2022/04/05 06:18:17;;;;;;;19.90;8.90;;;;;;;4.01;55.41;100520.08;107226;1249;74271;-65
2022/04/05 06:20:48;;;;;;;9.60;5.80;;;;;;;4.27;52.68;100519.31;107247;1248;60802;-71
2022/04/05 06:23:17;;;;;;;16.30;9.10;;;;;;;4.51;50.07;100515.34;107373;1249;61964;-67
2022/04/05 06:25:47;;;;;;;14.50;9.40;;;;;;;4.60;48.70;100515.27;107289;1247;72806;-67
2022/04/05 06:28:18;;;;;;;13.00;8.10;;;;;;;4.75;49.94;100517.92;107386;1247;71358;-69
2022/04/05 06:30:47;;;;;;;16.40;9.50;;;;;;;4.88;47.59;100508.30;107193;1251;70180;-67
2022/04/05 06:33:22;;;;;;;14.90;10.00;;;;;;;4.98;49.94;100501.73;107185;1250;73201;-65
2022/04/05 06:35:56;;;;;;;11.90;6.50;;;;;;;5.09;49.88;100488.40;107252;1248;59560;-66
2022/04/05 06:38:27;;;;;;;14.20;9.30;;;;;;;5.23;48.97;100493.66;107259;1249;59716;-68
2022/04/05 06:41:01;;;;;;;13.70;9.00;;;;;;;5.33;48.54;100490.01;107280;1248;72030;-69
2022/04/05 06:43:30;;;;;;;16.80;10.10;;;;;;;5.41;46.85;100493.58;107250;1248;70372;-68
2022/04/05 06:45:59;;;;;;;10.80;6.00;;;;;;;5.45;46.14;100489.72;107196;1247;67927;-67
2022/04/05 06:48:28;;;;;;;12.80;8.10;;;;;;;5.54;44.55;100490.95;107251;1250;72389;-72
2022/04/05 06:50:57;;;;;;;13.00;7.40;;;;;;;5.61;44.27;100486.27;107406;1247;58855;-70
2022/04/05 06:53:26;;;;;;;10.70;7.20;;;;;;;5.71;44.58;100483.81;107604;1247;59113;-71
2022/04/05 06:55:55;;;;;;;8.90;5.70;;;;;;;5.84;42.95;100476.52;107491;1247;74653;-67
2022/04/05 06:58:24;;;;;;;7.70;5.60;;;;;;;5.95;41.82;100466.09;107444;1250;72726;-66
2022/04/05 07:00:53;;;;;;;12.80;7.80;;;;;;;6.06;41.32;100465.23;107314;1249;71226;-67
2022/04/05 07:03:23;;;;;;;12.70;6.60;;;;;;;6.17;41.22;100465.14;107304;1248;75507;-66
2022/04/05 07:05:53;;;;;;;9.20;5.30;;;;;;;6.31;40.86;100459.16;107425;1247;61896;-68
2022/04/05 07:08:22;;;;;;;10.40;6.10;;;;;;;6.44;40.88;100455.45;107548;1247;60886;-68
2022/04/05 07:10:51;;;;;;;6.50;4.70;;;;;;;6.60;39.44;100449.97;107490;1247;75304;-69
2022/04/05 07:13:20;;;;;;;14.30;7.00;;;;;;;6.70;38.74;100449.59;107522;1247;69959;-67
2022/04/05 07:15:49;;;;;;;10.40;6.90;;;;;;;6.80;39.15;100453.77;107509;1247;71049;-69
2022/04/05 07:18:19;;;;;;;11.50;7.00;;;;;;;6.88;39.58;100451.36;107308;1248;73682;-68
2022/04/05 07:20:48;;;;;;;13.90;4.70;;;;;;;6.95;37.91;100447.34;107415;1248;59612;-67
2022/04/05 07:23:17;;;;;;;5.00;3.10;;;;;;;7.02;38.28;100452.11;107252;1247;60549;-69
2022/04/05 07:25:46;;;;;;;6.50;4.10;;;;;;;7.15;37.12;100442.48;107491;1248;73594;-67
2022/04/05 07:28:15;;;;;;;9.90;7.00;;;;;;;7.21;36.79;100438.47;107285;1248;69780;-65
2022/04/05 07:30:44;;;;;;;9.60;6.80;;;;;;;7.15;36.88;100438.48;107282;1247;68751;-65
2022/04/05 07:33:13;;;;;;;12.00;6.60;;;;;;;7.19;37.69;100443.63;108094;1249;71211;-69
2022/04/05 07:35:42;;;;;;;10.70;6.90;;;;;;;7.40;38.15;100444.86;107258;1247;59620;-66
2022/04/05 07:38:12;;;;;;;8.50;5.10;;;;;;;7.61;38.50;100442.14;107241;1248;62275;-67
2022/04/05 07:40:51;;;;;;;11.50;5.20;;;;;;;7.77;35.88;100440.09;107386;1248;72642;-68
2022/04/05 07:43:23;;;;;;;9.00;4.80;;;;;;;7.77;34.67;100439.94;107319;1247;72821;-68
2022/04/05 07:45:54;;;;;;;6.70;4.10;;;;;;;7.54;35.20;100435.67;107368;1247;70669;-68
2022/04/05 07:48:28;;;;;;;9.80;5.90;;;;;;;7.57;35.32;100429.06;107342;1248;71612;-68
2022/04/05 07:50:57;;;;;;;7.30;4.60;;;;;;;7.70;35.30;100432.95;107442;1248;60466;-69
2022/04/05 07:53:26;;;;;;;7.40;5.30;;;;;;;7.77;35.08;100421.19;107465;1250;60036;-70
2022/04/05 07:55:58;;;;;;;6.00;4.10;;;;;;;7.91;35.20;100414.34;107367;1247;71984;-70
2022/04/05 07:58:37;;;;;;;9.00;5.50;;;;;;;8.01;34.45;100424.27;107205;1247;71589;-72
2022/04/05 08:01:09;;;;;;;7.60;5.30;;;;;;;8.04;34.43;100413.89;107164;1250;69825;-69
2022/04/05 08:03:39;;;;;;;5.50;3.80;;;;;;;8.20;34.00;100412.61;107302;1247;71918;-67
2022/04/05 08:06:08;;;;;;;6.40;3.90;;;;;;;8.30;32.89;100405.34;107172;1248;60726;-67
2022/04/05 08:08:37;;;;;;;6.20;4.00;;;;;;;8.34;33.26;100402.84;107200;1251;60332;-71
2022/04/05 08:11:26;;;;;;;8.70;4.00;;;;;;;8.34;32.94;100404.19;107136;1251;72653;-68
2022/04/05 08:13:56;;;;;;;9.30;4.90;;;;;;;8.29;32.91;100398.29;107213;1247;73247;-72
2022/04/05 08:16:29;;;;;;;11.00;5.70;;;;;;;8.43;33.83;100399.81;107196;1248;70025;-69
2022/04/05 08:18:59;;;;;;;6.00;4.10;;;;;;;8.61;33.38;100390.23;107115;1248;74264;-69
2022/04/05 08:21:29;;;;;;;8.00;4.40;;;;;;;8.86;32.51;100395.24;107173;1247;60340;-70
2022/04/05 08:23:59;;;;;;;6.30;4.10;;;;;;;8.90;32.16;100384.79;107166;1247;61163;-69
2022/04/05 08:26:28;;;;;;;8.40;5.30;;;;;;;8.87;32.49;100380.23;107285;1247;74368;-66
2022/04/05 08:28:57;;;;;;;9.30;5.80;;;;;;;9.01;33.09;100370.90;107282;1248;72939;-69
2022/04/05 08:31:26;;;;;;;7.90;4.90;;;;;;;9.23;33.45;100366.57;107333;1248;71405;-70
2022/04/05 08:33:55;;;;;;;11.90;6.20;;;;;;;9.44;32.52;100355.69;107366;1247;73959;-68
2022/04/05 08:36:24;;;;;;;8.80;5.90;;;;;;;9.67;33.28;100359.73;107168;1249;59680;-70
2022/04/05 08:38:53;;;;;;;8.00;5.70;;;;;;;10.00;32.11;100360.34;107458;1247;61343;-66
2022/04/05 08:41:25;;;;;;;10.60;6.70;;;;;;;10.00;31.80;100355.52;107421;1250;74368;-68
2022/04/05 08:43:54;;;;;;;7.10;4.80;;;;;;;9.90;32.43;100350.51;107385;1247;72416;-66
2022/04/05 08:46:26;;;;;;;8.50;5.50;;;;;;;9.97;31.74;100351.59;107357;1248;71509;-69
2022/04/05 08:48:55;;;;;;;8.40;5.20;;;;;;;9.88;31.70;100350.68;107386;1247;74582;-70
2022/04/05 08:51:25;;;;;;;7.30;4.60;;;;;;;9.87;31.68;100346.23;107307;1247;60872;-68
2022/04/05 08:53:54;;;;;;;5.70;3.70;;;;;;;9.83;31.60;100347.73;107434;1249;60609;-67
2022/04/05 08:56:26;;;;;;;7.00;4.10;;;;;;;9.92;31.52;100350.19;107550;1247;75418;-66
2022/04/05 08:58:56;;;;;;;8.00;5.20;;;;;;;9.92;30.67;100351.95;107353;1248;71809;-69
2022/04/05 09:01:29;;;;;;;8.80;6.00;;;;;;;9.91;30.45;100350.96;107521;1248;69811;-68
2022/04/05 09:03:58;;;;;;;;;;;;;;;9.89;30.68;100342.44;107543;1247;74313;-66
2022/04/05 09:06:31;;;;;;;10.50;5.50;;;;;;;10.03;30.63;100343.82;107486;1247;59679;-68
2022/04/05 09:09:11;;;;;;;8.60;5.50;;;;;;;10.16;30.84;100339.14;107318;1248;59987;-67
2022/04/05 09:11:45;;;;;;;10.10;4.70;;;;;;;10.35;29.95;100341.18;107349;1247;73998;-68
2022/04/05 09:14:28;;;;;;;8.40;5.80;;;;;;;10.41;30.04;100336.73;107375;1247;72446;-67
2022/04/05 09:17:06;;;;;;;8.90;5.20;;;;;;;10.56;30.16;100329.31;107338;1247;71223;-69
2022/04/05 09:19:46;;;;;;;7.20;4.10;;;;;;;10.71;30.34;100329.67;107408;1247;74296;-73
2022/04/05 09:22:31;;;;;;;10.00;6.30;;;;;;;10.74;29.33;100333.43;107332;1247;62178;-71
2022/04/05 09:25:14;;;;;;;6.70;5.10;;;;;;;10.50;29.83;100323.02;107523;1247;61140;-70
2022/04/05 09:27:56;;;;;;;11.40;5.80;;;;;;;10.74;29.98;100328.02;107697;1248;76282;-72
2022/04/05 09:30:31;;;;;;;6.80;4.00;;;;;;;10.90;29.40;100323.83;107650;1247;69770;-69
2022/04/05 09:33:02;;;;;;;7.00;4.40;;;;;;;11.00;28.71;100305.59;107826;1247;68538;-71
2022/04/05 09:35:43;;;;;;;5.70;3.40;;;;;;;11.03;28.52;100298.23;107790;1247;72072;-66
2022/04/05 09:38:15;;;;;;;7.80;4.90;;;;;;;11.00;28.69;100294.93;107799;1248;60535;-68
2022/04/05 09:40:45;;;;;;;8.00;5.10;;;;;;;11.13;28.81;100299.66;107676;1247;61115;-69
2022/04/05 09:43:31;;;;;;;8.00;3.60;;;;;;;11.12;29.03;100294.51;107321;1248;72528;-67
2022/04/05 09:46:02;;;;;;;7.50;3.90;;;;;;;11.28;28.70;100295.10;107311;1247;72289;-70
2022/04/05 09:48:35;;;;;;;5.80;3.60;;;;;;;11.26;29.11;100286.02;107354;1248;72113;-67
2022/04/05 09:51:09;;;;;;;7.10;4.90;;;;;;;11.32;28.76;100295.17;107451;1247;72463;-69
2022/04/05 09:53:57;;;;;;;10.40;5.10;;;;;;;11.13;29.17;100281.55;107444;1247;62290;-69
2022/04/05 09:56:34;;;;;;;7.50;4.10;;;;;;;11.53;28.82;100276.68;107470;1247;59928;-70
2022/04/05 09:59:14;;;;;;;8.70;4.60;;;;;;;11.60;28.29;100268.91;107352;1247;72530;-71
2022/04/05 10:01:43;;;;;;;5.30;3.80;;;;;;;11.66;28.68;100263.36;107231;1247;72322;-68
2022/04/05 10:04:18;;;;;;;8.30;5.10;;;;;;;11.85;28.55;100262.16;107572;1247;70442;-70
2022/04/05 10:06:48;;;;;;;6.60;4.50;;;;;;;12.03;28.35;100260.05;107380;1247;71900;-67
2022/04/05 10:09:21;;;;;;;7.10;4.20;;;;;;;11.94;27.42;100258.27;107420;1247;60093;-68
2022/04/05 10:11:50;;;;;;;;;;;;;;;11.88;27.61;100253.90;107319;1249;58800;-68
2022/04/05 10:14:23;;;;;;;5.60;4.10;;;;;;;11.98;27.46;100243.44;107453;1248;73492;-69
2022/04/05 10:16:53;;;;;;;9.00;4.70;;;;;;;12.03;27.98;100223.58;107586;1248;73851;-70
2022/04/05 10:19:24;;;;;;;7.00;4.30;;;;;;;12.35;27.88;100240.58;107648;1247;72149;-70
2022/04/05 10:21:56;;;;;;;7.00;4.10;;;;;;;12.49;27.79;100227.85;107460;1248;73960;-71
2022/04/05 10:24:27;;;;;;;6.40;4.30;;;;;;;12.63;27.84;100230.45;107450;1247;60703;-70
2022/04/05 10:26:56;;;;;;;4.90;3.70;;;;;;;12.57;27.66;100224.46;107163;1248;61140;-69
2022/04/05 10:29:27;;;;;;;6.30;4.10;;;;;;;12.65;27.79;100229.01;107416;1248;72555;-73
2022/04/05 10:32:15;;;;;;;8.20;5.20;;;;;;;12.72;27.39;100217.77;107662;1247;71809;-72
2022/04/05 10:35:01;;;;;;;6.90;4.70;;;;;;;13.06;26.53;100213.96;107509;1248;70051;-70
2022/04/05 10:37:33;;;;;;;7.70;4.10;;;;;;;13.24;27.22;100211.63;107575;1250;73010;-70
2022/04/05 10:40:01;;;;;;;6.50;4.10;;;;;;;13.48;27.16;100208.19;107640;1247;60712;-71
2022/04/05 10:42:42;;;;;;;4.70;3.50;;;;;;;14.03;25.68;100210.38;107556;1247;62659;-68
2022/04/05 10:45:19;;;;;;;5.80;4.40;;;;;;;14.28;25.40;100209.80;107265;1248;74163;-68
2022/04/05 10:48:13;;;;;;;9.20;4.80;;;;;;;13.97;25.80;100200.99;107479;1247;72075;-69
2022/04/05 10:51:02;;;;;;;5.20;3.50;;;;;;;14.15;26.82;100192.04;107372;1247;70496;-70
2022/04/05 10:54:17;;;;;;;6.30;4.10;;;;;;;15.21;24.75;100185.63;107386;1247;72260;-69
2022/04/05 10:56:31;;;;;;;7.40;4.50;;;;;;;15.15;25.40;100183.77;107487;1248;59879;-70
2022/04/05 10:59:02;;;;;;;8.00;4.70;;;;;;;15.16;25.52;100178.95;107319;1248;60502;-69
2022/04/05 11:01:44;;;;;;;6.10;4.10;;;;;;;15.25;24.97;100172.66;107417;1248;73611;-70
2022/04/05 11:04:14;;;;;;;6.20;3.40;;;;;;;15.02;25.28;100171.77;107263;1248;71859;-69
2022/04/05 11:06:59;;;;;;;5.50;4.20;;;;;;;14.90;25.09;100164.90;107366;1247;70269;-68
2022/04/05 11:09:45;;;;;;;5.40;3.10;;;;;;;15.11;25.03;100161.41;107502;1249;72264;-69
2022/04/05 11:12:25;;;;;;;5.30;3.50;;;;;;;15.18;25.29;100164.36;107665;1248;61702;-69
2022/04/05 11:15:03;;;;;;;14.00;4.40;;;;;;;15.27;24.63;100165.55;107844;1247;60830;-77
2022/04/05 11:17:43;;;;;;;5.90;3.20;;;;;;;15.02;24.80;100154.88;107477;1248;75230;-73
2022/04/05 11:20:14;;;;;;;4.60;3.70;;;;;;;14.86;24.97;100157.05;107557;1247;72758;-72
2022/04/05 11:22:43;;;;;;;8.80;4.20;;;;;;;14.71;25.54;100149.65;107519;1247;70922;-74
2022/04/05 11:25:25;;;;;;;6.90;3.70;;;;;;;14.87;26.61;100147.11;107219;1247;73047;-73
2022/04/05 11:27:56;;;;;;;6.30;4.10;;;;;;;15.50;24.64;100135.87;107185;1247;61725;-67
2022/04/05 11:30:57;;;;;;;6.50;4.50;;;;;;;15.56;24.82;100130.16;107177;1248;62677;-68